createdAt,value
2019-06-07T00:00:33.515Z,1.95
2019-06-07T00:02:51.902Z,1.95
2019-06-07T00:05:23.576Z,1.70
2019-06-07T00:07:55.248Z,2.10
2019-06-07T00:10:35.908Z,2.00
2019-06-07T00:13:00.339Z,1.62
2019-06-07T00:15:32.125Z,1.85
2019-06-07T00:18:03.858Z,2.17
2019-06-07T00:20:35.565Z,1.85
2019-06-07T00:23:09.300Z,1.85
2019-06-07T00:25:41.368Z,2.55
2019-06-07T00:28:13.375Z,2.10
2019-06-07T00:30:52.298Z,2.12
2019-06-07T00:33:23.981Z,2.33
2019-06-07T00:35:52.567Z,2.67
2019-06-07T00:38:24.343Z,2.30
2019-06-07T00:40:56.018Z,2.10
2019-06-07T00:43:28.681Z,1.98
2019-06-07T00:46:00.442Z,1.87
2019-06-07T00:48:33.110Z,2.37
2019-06-07T00:51:04.888Z,2.60
2019-06-07T00:53:36.434Z,3.02
2019-06-07T00:56:08.119Z,2.83
2019-06-07T00:58:39.785Z,2.55
2019-06-07T01:01:13.101Z,2.80
2019-06-07T01:03:44.873Z,2.60
2019-06-07T01:06:17.603Z,2.30
2019-06-07T01:08:49.754Z,2.65
2019-06-07T01:11:23.552Z,2.27
2019-06-07T01:13:55.865Z,2.35
2019-06-07T01:16:27.347Z,2.70
2019-06-07T01:18:59.008Z,2.77
2019-06-07T01:21:30.810Z,3.30
2019-06-07T01:24:11.842Z,2.70
2019-06-07T01:26:36.588Z,2.50
2019-06-07T01:29:08.431Z,2.67
2019-06-07T01:31:40.242Z,2.87
2019-06-07T01:34:12.124Z,3.40
2019-06-07T01:36:43.901Z,2.95
2019-06-07T01:39:16.362Z,2.60
2019-06-07T01:41:47.859Z,2.90
2019-06-07T01:44:23.629Z,2.30
2019-06-07T01:46:52.745Z,2.62
2019-06-07T01:49:27.749Z,2.87
2019-06-07T01:51:57.938Z,3.42
2019-06-07T01:57:02.919Z,2.60
2019-06-07T01:59:34.693Z,2.70
2019-06-07T02:02:06.574Z,2.60
2019-06-07T02:04:38.662Z,2.60
2019-06-07T02:07:10.334Z,2.47
2019-06-07T02:09:42.108Z,3.47
2019-06-07T02:12:25.776Z,2.55
2019-06-07T02:14:47.096Z,2.50
2019-06-07T02:17:20.264Z,2.90
2019-06-07T02:19:52.078Z,2.55
2019-06-07T02:22:25.692Z,1.82
2019-06-07T02:25:34.560Z,2.52
2019-06-07T02:27:32.617Z,3.50
2019-06-07T02:30:35.478Z,4.08
2019-06-07T02:32:37.310Z,2.37
2019-06-07T02:35:09.661Z,1.70
2019-06-07T02:37:41.066Z,2.62
2019-06-07T02:40:13.405Z,1.60
2019-06-07T02:42:44.828Z,2.00
2019-06-07T02:45:16.841Z,2.37
2019-06-07T02:47:48.984Z,1.90
2019-06-07T02:50:21.186Z,2.12
2019-06-07T02:52:52.946Z,1.80
2019-06-07T02:55:27.503Z,1.55
2019-06-07T02:57:57.856Z,1.72
2019-06-07T03:01:07.771Z,1.72
2019-06-07T03:03:18.007Z,1.77
2019-06-07T03:05:49.627Z,1.67
2019-06-07T03:08:21.323Z,1.87
2019-06-07T03:10:53.080Z,2.00
2019-06-07T03:13:28.468Z,1.40
2019-06-07T03:15:59.594Z,1.70
2019-06-07T03:18:51.215Z,1.90
2019-06-07T03:21:29.329Z,1.90
2019-06-07T03:24:00.801Z,2.10
2019-06-07T03:26:35.759Z,1.72
2019-06-07T03:29:06.605Z,1.80
2019-06-07T03:31:46.386Z,2.00
2019-06-07T03:34:11.491Z,1.75
2019-06-07T03:36:43.165Z,1.72
2019-06-07T03:39:14.837Z,1.70
2019-06-07T03:42:05.077Z,2.50
2019-06-07T03:44:19.511Z,2.33
2019-06-07T03:46:51.293Z,2.10
2019-06-07T03:49:22.966Z,1.80
2019-06-07T03:51:54.641Z,2.52
2019-06-07T03:54:27.239Z,2.10
2019-06-07T03:56:59.012Z,2.30
2019-06-07T03:59:35.558Z,3.05
2019-06-07T04:02:04.099Z,2.05
2019-06-07T04:04:38.497Z,2.12
2019-06-07T04:07:09.291Z,1.98
2019-06-07T04:09:43.065Z,3.00
2019-06-07T04:12:14.277Z,2.40
2019-06-07T04:14:46.261Z,2.75
2019-06-07T04:17:17.725Z,2.95
2019-06-07T04:19:49.400Z,2.65
2019-06-07T04:22:21.176Z,2.90
2019-06-07T04:24:52.951Z,3.08
2019-06-07T04:27:25.450Z,2.60
2019-06-07T04:30:07.045Z,2.65
2019-06-07T04:32:32.063Z,2.50
2019-06-07T04:35:03.731Z,2.60
2019-06-07T04:37:39.667Z,2.72
2019-06-07T04:40:10.467Z,2.42
2019-06-07T04:42:45.224Z,2.40
2019-06-07T04:45:33.043Z,2.30
2019-06-07T04:47:50.604Z,2.25
2019-06-07T04:50:22.378Z,2.00
2019-06-07T04:52:54.159Z,1.95
2019-06-07T04:55:25.828Z,2.62
2019-06-07T04:57:57.707Z,2.42
2019-06-07T05:00:49.885Z,1.67
2019-06-07T05:03:08.624Z,1.90
2019-06-07T05:05:43.557Z,1.98
2019-06-07T05:08:27.422Z,1.80
2019-06-07T05:10:46.678Z,1.62
2019-06-07T05:13:18.288Z,1.80
2019-06-07T05:15:50.065Z,1.90
2019-06-07T05:18:21.946Z,2.20
2019-06-07T05:20:53.518Z,1.85
2019-06-07T05:25:58.091Z,1.65
2019-06-07T05:28:30.099Z,1.82
2019-06-07T05:31:07.705Z,1.67
2019-06-07T05:33:36.715Z,2.05
2019-06-07T05:36:08.062Z,2.40
2019-06-07T05:38:44.155Z,1.90
2019-06-07T05:41:12.957Z,1.35
2019-06-07T05:43:55.037Z,2.12
2019-06-07T05:46:17.727Z,2.05
2019-06-07T05:48:49.404Z,1.92
2019-06-07T05:51:20.768Z,1.85
2019-06-07T05:53:52.443Z,2.15
2019-06-07T05:56:24.117Z,1.50
2019-06-07T05:58:55.809Z,2.30
2019-06-07T06:01:42.895Z,1.60
2019-06-07T06:04:00.778Z,1.95
2019-06-07T06:06:33.801Z,1.82
2019-06-07T06:09:13.705Z,1.92
2019-06-07T06:11:49.324Z,1.50
2019-06-07T06:14:13.507Z,1.55
2019-06-07T06:16:47.940Z,1.72
2019-06-07T06:19:18.183Z,1.47
2019-06-07T06:21:49.963Z,1.90
2019-06-07T06:24:21.742Z,1.65
2019-06-07T06:27:00.268Z,1.47
2019-06-07T06:29:26.624Z,2.22
2019-06-07T06:34:31.711Z,1.60
2019-06-07T06:37:03.484Z,1.50
2019-06-07T06:39:35.265Z,1.42
2019-06-07T06:42:07.038Z,1.70
2019-06-07T06:44:41.798Z,1.52
2019-06-07T06:47:11.615Z,1.60
2019-06-07T06:49:44.234Z,1.50
2019-06-07T06:52:16.398Z,1.20
2019-06-07T06:54:55.372Z,1.07
2019-06-07T06:57:20.974Z,1.60
2019-06-07T06:59:52.986Z,1.47
2019-06-07T07:02:24.834Z,1.20
2019-06-07T07:04:56.612Z,1.17
2019-06-07T07:07:28.936Z,0.95
2019-06-07T07:10:00.977Z,1.05
2019-06-07T07:12:32.550Z,1.10
2019-06-07T07:15:06.488Z,1.00
2019-06-07T07:17:52.643Z,0.85
2019-06-07T07:20:11.462Z,1.10
2019-06-07T07:22:46.391Z,0.85
2019-06-07T07:25:16.243Z,1.55
2019-06-07T07:27:52.099Z,1.25
2019-06-07T07:30:43.148Z,0.93
2019-06-07T07:33:15.284Z,1.32
2019-06-07T07:36:10.903Z,1.60
2019-06-07T07:38:20.388Z,1.67
2019-06-07T07:41:15.215Z,1.82
2019-06-07T07:43:25.269Z,1.87
2019-06-07T07:46:02.020Z,2.22
2019-06-07T07:48:29.644Z,1.40
2019-06-07T07:51:03.257Z,1.40
2019-06-07T07:53:48.718Z,1.52
2019-06-07T07:56:07.781Z,2.00
2019-06-07T07:58:39.640Z,0.82
2019-06-07T08:01:11.533Z,1.10
2019-06-07T08:03:43.266Z,0.98
2019-06-07T08:06:15.053Z,0.80
2019-06-07T08:08:46.716Z,0.70
2019-06-07T08:11:18.391Z,0.80
2019-06-07T08:13:50.547Z,0.78
2019-06-07T08:16:22.705Z,1.35
2019-06-07T08:19:02.258Z,1.57
2019-06-07T08:21:29.350Z,2.27
2019-06-07T08:24:04.659Z,2.40
2019-06-07T08:26:35.662Z,1.60
2019-06-07T08:29:08.154Z,1.42
2019-06-07T08:31:43.350Z,1.00
2019-06-07T08:34:14.919Z,1.30
2019-06-07T08:36:46.700Z,1.17
2019-06-07T08:39:18.471Z,1.15
2019-06-07T08:42:00.137Z,1.15
2019-06-07T08:44:25.610Z,1.55
2019-06-07T08:47:16.066Z,1.22
2019-06-07T08:49:29.672Z,1.30
2019-06-07T08:52:10.510Z,0.95
2019-06-07T08:54:34.346Z,1.10
2019-06-07T08:57:19.671Z,2.10
2019-06-07T08:59:39.128Z,0.90
2019-06-07T09:02:23.443Z,1.35
2019-06-07T09:04:43.910Z,3.70
2019-06-07T09:07:20.010Z,3.02
2019-06-07T09:09:48.687Z,1.35
2019-06-07T09:12:20.272Z,2.65
2019-06-07T09:15:09.365Z,1.67
2019-06-07T09:17:25.347Z,1.15
2019-06-07T09:19:59.031Z,1.05
2019-06-07T09:22:30.127Z,1.05
2019-06-07T09:25:09.852Z,0.72
2019-06-07T09:27:35.178Z,0.93
2019-06-07T09:30:16.575Z,1.02
2019-06-07T09:32:43.474Z,0.82
2019-06-07T09:35:17.776Z,1.05
2019-06-07T09:38:21.826Z,0.70
2019-06-07T09:40:27.883Z,0.65
2019-06-07T09:43:47.985Z,1.00
2019-06-07T09:45:31.877Z,1.15
2019-06-07T09:48:10.110Z,0.82
2019-06-07T09:50:36.862Z,1.10
2019-06-07T09:53:20.938Z,1.00
2019-06-07T09:55:42.353Z,0.95
2019-06-07T09:58:50.629Z,0.80
2019-06-07T10:00:48.152Z,0.90
2019-06-07T10:03:22.425Z,0.70
2019-06-07T10:05:52.524Z,1.15
2019-06-07T10:09:42.429Z,1.00
2019-06-07T10:10:58.265Z,1.12
2019-06-07T10:13:29.944Z,1.12
2019-06-07T10:16:02.787Z,1.25
2019-06-07T10:18:34.382Z,1.62
2019-06-07T10:21:07.665Z,1.17
2019-06-07T10:23:39.157Z,1.77
2019-06-07T10:26:10.833Z,1.20
2019-06-07T10:28:42.607Z,1.12
2019-06-07T10:31:14.383Z,1.10
2019-06-07T10:33:46.058Z,1.47
2019-06-07T10:36:17.424Z,1.52
2019-06-07T10:38:49.202Z,1.07
2019-06-07T10:41:20.977Z,1.50
2019-06-07T10:43:52.752Z,1.65
2019-06-07T10:46:24.333Z,1.55
2019-06-07T10:48:56.021Z,1.25
2019-06-07T10:51:27.778Z,1.75
2019-06-07T10:53:59.552Z,1.75
2019-06-07T10:56:31.330Z,1.45
2019-06-07T10:59:03.143Z,1.55
2019-06-07T11:01:34.782Z,1.60
2019-06-07T11:04:07.762Z,1.72
2019-06-07T11:06:39.358Z,1.45
2019-06-07T11:09:12.074Z,1.47
2019-06-07T11:11:43.567Z,1.30
2019-06-07T11:14:15.407Z,1.60
2019-06-07T11:16:47.689Z,1.52
2019-06-07T11:19:19.820Z,1.62
2019-06-07T11:21:51.757Z,1.15
2019-06-07T11:24:24.787Z,1.60
2019-06-07T11:26:56.536Z,1.47
2019-06-07T11:29:28.209Z,2.10
2019-06-07T11:31:59.785Z,1.67
2019-06-07T11:34:31.579Z,2.00
2019-06-07T11:37:03.337Z,2.27
2019-06-07T11:39:35.113Z,1.50
2019-06-07T11:42:07.901Z,2.27
2019-06-07T11:44:55.681Z,2.25
2019-06-07T11:47:12.597Z,1.45
2019-06-07T11:49:44.163Z,1.47
2019-06-07T11:52:15.937Z,2.33
2019-06-07T11:54:48.221Z,1.77
2019-06-07T11:57:20.001Z,1.80
2019-06-07T11:59:51.688Z,1.47
2019-06-07T12:02:23.453Z,1.60
2019-06-07T12:04:55.232Z,2.35
2019-06-07T12:07:27.007Z,2.10
2019-06-07T12:09:58.579Z,1.30
2019-06-07T12:12:30.258Z,1.60
2019-06-07T12:15:02.051Z,1.27
2019-06-07T12:17:34.012Z,1.32
2019-06-07T12:20:10.209Z,1.62
2019-06-07T12:22:41.369Z,1.95
2019-06-07T12:25:19.000Z,2.02
2019-06-07T12:27:47.158Z,1.60
2019-06-07T12:30:26.286Z,1.77
2019-06-07T12:32:52.442Z,1.50
2019-06-07T12:35:24.225Z,1.25
2019-06-07T12:37:55.892Z,1.47
2019-06-07T12:40:32.173Z,1.45
2019-06-07T12:43:00.675Z,1.62
2019-06-07T12:45:44.533Z,2.22
2019-06-07T12:48:05.656Z,1.95
2019-06-07T12:50:43.049Z,1.92
2019-06-07T12:53:10.894Z,2.08
2019-06-07T12:55:42.933Z,2.35
2019-06-07T12:58:14.405Z,2.00
2019-06-07T13:00:46.079Z,2.22
2019-06-07T13:03:18.417Z,2.50
2019-06-07T13:05:49.740Z,2.30
2019-06-07T13:08:22.067Z,2.42
2019-06-07T13:10:53.804Z,2.00
2019-06-07T13:13:25.473Z,1.95
2019-06-07T13:15:57.387Z,1.85
2019-06-07T13:18:29.139Z,2.02
2019-06-07T13:21:00.806Z,1.87
2019-06-07T13:23:32.578Z,2.33
2019-06-07T13:26:04.152Z,2.00
2019-06-07T13:28:35.945Z,2.12
2019-06-07T13:31:07.813Z,1.70
2019-06-07T13:33:39.592Z,1.37
2019-06-07T13:36:11.470Z,2.33
2019-06-07T13:38:42.934Z,1.72
2019-06-07T13:41:29.242Z,2.72
2019-06-07T13:43:51.318Z,1.98
2019-06-07T13:46:21.004Z,2.00
2019-06-07T13:48:52.903Z,1.72
2019-06-07T13:51:25.220Z,2.95
2019-06-07T13:53:59.491Z,2.45
2019-06-07T13:56:30.791Z,2.30
2019-06-07T13:59:02.463Z,1.80
2019-06-07T14:01:34.146Z,1.98
2019-06-07T14:04:05.916Z,1.98
2019-06-07T14:06:37.811Z,2.10
2019-06-07T14:09:09.879Z,2.35
2019-06-07T14:11:50.604Z,2.65
2019-06-07T14:14:14.457Z,2.30
2019-06-07T14:16:46.132Z,2.33
2019-06-07T14:19:17.938Z,2.33
2019-06-07T14:21:49.476Z,2.98
2019-06-07T14:24:21.357Z,6.58
2019-06-07T14:27:08.474Z,4.40
2019-06-07T14:29:40.361Z,4.55
2019-06-07T14:32:11.720Z,4.53
2019-06-07T14:34:43.498Z,4.95
2019-06-07T14:37:15.282Z,4.45
2019-06-07T14:39:46.849Z,2.90
2019-06-07T14:42:18.642Z,2.00
2019-06-07T14:44:50.400Z,2.00
2019-06-07T14:47:23.686Z,2.33
2019-06-07T14:49:55.282Z,2.05
2019-06-07T14:52:26.851Z,2.00
2019-06-07T14:54:58.329Z,2.40
2019-06-07T14:57:31.125Z,2.25
2019-06-07T15:00:10.899Z,2.47
2019-06-07T15:02:37.904Z,2.33
2019-06-07T15:05:09.722Z,2.25
2019-06-07T15:07:41.399Z,2.40
2019-06-07T15:10:13.586Z,2.00
2019-06-07T15:12:45.156Z,2.85
2019-06-07T15:15:17.141Z,3.58
2019-06-07T15:17:48.810Z,3.52
2019-06-07T15:20:20.385Z,3.27
2019-06-07T15:22:52.160Z,3.22
2019-06-07T15:25:23.840Z,3.47
2019-06-07T15:27:55.511Z,3.10
2019-06-07T15:30:27.500Z,3.00
2019-06-07T15:32:59.912Z,2.83
2019-06-07T15:35:32.178Z,2.77
2019-06-07T15:38:03.952Z,3.55
2019-06-07T15:40:37.421Z,3.67
2019-06-07T15:43:08.728Z,3.12
2019-06-07T15:45:40.505Z,4.15
2019-06-07T15:48:12.088Z,4.10
2019-06-07T15:50:43.854Z,3.27
2019-06-07T15:53:15.527Z,3.02
2019-06-07T15:55:47.302Z,2.85
2019-06-07T15:58:19.096Z,2.30
2019-06-07T16:00:50.876Z,3.05
2019-06-07T16:03:22.430Z,2.27
2019-06-07T16:05:54.115Z,3.05
2019-06-07T16:08:25.780Z,2.83
2019-06-07T16:10:57.558Z,3.12
2019-06-07T16:13:29.334Z,2.90
2019-06-07T16:16:01.120Z,3.02
2019-06-07T16:18:33.167Z,3.30
2019-06-07T16:21:04.865Z,3.17
2019-06-07T16:23:37.762Z,2.72
2019-06-07T16:26:09.342Z,2.67
2019-06-07T16:28:42.455Z,2.40
2019-06-07T16:31:14.117Z,3.10
2019-06-07T16:33:45.796Z,2.87
2019-06-07T16:36:17.468Z,2.67
2019-06-07T16:38:49.247Z,3.08
2019-06-07T16:41:21.033Z,3.55
2019-06-07T16:43:52.696Z,2.62
2019-06-07T16:46:24.375Z,2.60
2019-06-07T16:48:56.059Z,2.65
2019-06-07T16:51:27.824Z,2.83
2019-06-07T16:53:59.600Z,3.92
2019-06-07T16:56:31.372Z,2.67
2019-06-07T16:59:02.952Z,3.15
2019-06-07T17:01:34.735Z,2.55
2019-06-07T17:04:06.396Z,3.12
2019-06-07T17:06:38.175Z,4.42
2019-06-07T17:09:09.949Z,3.83
2019-06-07T17:11:42.362Z,4.70
2019-06-07T17:14:13.813Z,5.25
2019-06-07T17:16:46.011Z,4.47
2019-06-07T17:19:18.592Z,4.72
2019-06-07T17:21:50.269Z,4.60
2019-06-07T17:24:22.047Z,5.60
2019-06-07T17:26:53.821Z,4.55
2019-06-07T17:29:25.595Z,5.53
2019-06-07T17:31:57.269Z,5.78
2019-06-07T17:34:28.846Z,4.50
2019-06-07T17:37:00.525Z,5.03
2019-06-07T17:39:32.296Z,5.55
2019-06-07T17:42:04.075Z,5.70
2019-06-07T17:44:38.199Z,5.25
2019-06-07T17:47:09.875Z,5.50
2019-06-07T17:49:41.795Z,5.10
2019-06-07T17:52:13.632Z,5.55
2019-06-07T17:54:45.907Z,5.80
2019-06-07T17:57:17.389Z,6.35
2019-06-07T17:59:48.961Z,6.10
2019-06-07T18:02:20.844Z,5.65
2019-06-07T18:04:53.519Z,5.53
2019-06-07T18:07:26.797Z,6.35
2019-06-07T18:09:59.538Z,5.95
2019-06-07T18:12:34.712Z,6.55
2019-06-07T18:15:11.503Z,6.35
2019-06-07T18:17:42.856Z,5.90
2019-06-07T18:20:14.733Z,5.33
2019-06-07T18:22:47.027Z,5.70
2019-06-07T18:25:19.366Z,5.60
2019-06-07T18:27:51.096Z,6.00
2019-06-07T18:30:22.965Z,5.30
2019-06-07T18:32:55.120Z,4.30
2019-06-07T18:35:26.825Z,4.53
2019-06-07T18:37:59.660Z,4.53
2019-06-07T18:40:31.406Z,4.65
2019-06-07T18:43:03.290Z,4.40
2019-06-07T18:45:35.156Z,4.37
2019-06-07T18:48:07.244Z,4.80
2019-06-07T18:50:39.025Z,5.30
2019-06-07T18:53:11.243Z,6.20
2019-06-07T18:55:42.683Z,5.42
2019-06-07T18:58:14.450Z,5.12
2019-06-07T19:00:47.310Z,5.05
2019-06-07T19:03:20.714Z,4.45
2019-06-07T19:05:52.227Z,5.20
2019-06-07T19:08:23.599Z,4.40
2019-06-07T19:10:55.375Z,4.83
2019-06-07T19:13:27.052Z,4.95
2019-06-07T19:15:59.693Z,4.10
2019-06-07T19:18:31.425Z,4.67
2019-06-07T19:21:03.199Z,3.98
2019-06-07T19:23:34.878Z,4.80
2019-06-07T19:26:06.652Z,7.30
2019-06-07T19:28:39.554Z,6.65
2019-06-07T19:31:11.330Z,7.53
2019-06-07T19:33:49.228Z,7.33
2019-06-07T19:36:16.522Z,5.92
2019-06-07T19:38:49.221Z,6.47
2019-06-07T19:41:20.687Z,6.17
2019-06-07T19:43:52.361Z,6.28
2019-06-07T19:46:24.037Z,5.60
2019-06-07T19:48:56.553Z,6.00
2019-06-07T19:51:28.202Z,5.85
2019-06-07T19:54:01.642Z,5.40
2019-06-07T19:56:33.218Z,5.08
2019-06-07T19:59:05.425Z,4.97
2019-06-07T20:01:36.741Z,4.78
2019-06-07T20:10:35.221Z,4.70
2019-06-07T20:13:06.643Z,4.60
2019-06-07T20:15:38.422Z,4.92
2019-06-07T20:18:10.200Z,5.87
2019-06-07T20:20:41.768Z,5.97
2019-06-07T20:23:13.451Z,5.25
2019-06-07T20:25:45.541Z,4.80
2019-06-07T20:28:17.454Z,4.53
2019-06-07T20:30:52.189Z,3.80
2019-06-07T20:33:22.601Z,4.12
2019-06-07T20:35:54.267Z,4.00
2019-06-07T20:38:26.047Z,4.15
2019-06-07T20:40:58.948Z,3.80
2019-06-07T20:43:30.517Z,4.28
2019-06-07T20:46:03.515Z,4.15
2019-06-07T20:48:35.606Z,4.10
2019-06-07T20:51:08.675Z,3.80
2019-06-07T20:53:40.395Z,3.50
2019-06-07T20:56:12.063Z,3.42
2019-06-07T20:58:43.939Z,3.65
2019-06-07T21:01:15.719Z,3.62
2019-06-07T21:03:47.497Z,3.60
2019-06-07T21:06:19.270Z,3.20
2019-06-07T21:08:51.051Z,2.60
2019-06-07T21:11:22.623Z,2.62
2019-06-07T21:13:54.291Z,3.22
2019-06-07T21:16:25.966Z,3.77
2019-06-07T21:18:57.749Z,2.77
2019-06-07T21:21:29.523Z,3.30
2019-06-07T21:24:02.472Z,2.47
2019-06-07T21:26:34.101Z,2.80
2019-06-07T21:29:06.982Z,2.90
2019-06-07T21:31:38.877Z,2.60
2019-06-07T21:34:13.720Z,2.70
2019-06-07T21:36:43.663Z,2.30
2019-06-07T21:39:15.438Z,3.37
2019-06-07T21:41:48.137Z,3.10
2019-06-07T21:44:19.500Z,2.60
2019-06-07T21:46:51.176Z,3.72
2019-06-07T21:49:22.949Z,2.35
2019-06-07T21:51:54.732Z,2.47
2019-06-07T21:54:26.511Z,2.50
2019-06-07T21:56:58.089Z,2.85
2019-06-07T21:59:29.751Z,2.40
2019-06-07T22:02:03.125Z,2.70
2019-06-07T22:04:34.734Z,2.02
2019-06-07T22:07:07.901Z,2.20
2019-06-07T22:09:39.516Z,2.60
2019-06-07T22:12:12.099Z,2.33
2019-06-07T22:14:43.688Z,3.02
2019-06-07T22:17:15.359Z,2.83
2019-06-07T22:19:46.827Z,2.33
2019-06-07T22:22:18.503Z,2.22
2019-06-07T22:24:50.280Z,1.98
2019-06-07T22:27:22.058Z,1.85
2019-06-07T22:29:53.727Z,2.22
2019-06-07T22:32:25.410Z,2.35
2019-06-07T22:34:57.179Z,1.47
2019-06-07T22:37:28.857Z,2.20
2019-06-07T22:40:00.640Z,1.52
2019-06-07T22:42:32.526Z,2.05
2019-06-07T22:45:05.407Z,2.00
2019-06-07T22:47:36.888Z,1.95
2019-06-07T22:50:10.678Z,2.10
2019-06-07T22:52:42.275Z,2.02
2019-06-07T22:55:15.882Z,1.95
2019-06-07T22:57:59.851Z,2.40
2019-06-07T23:00:36.218Z,2.47
2019-06-07T23:03:08.513Z,2.08
2019-06-07T23:05:40.385Z,2.10
2019-06-07T23:08:13.085Z,2.50
2019-06-07T23:10:44.756Z,2.12
2019-06-07T23:13:17.841Z,2.02
2019-06-07T23:15:49.340Z,2.70
2019-06-07T23:18:21.112Z,2.02
2019-06-07T23:20:52.891Z,2.52
2019-06-07T23:23:24.667Z,2.20
2019-06-07T23:25:56.235Z,2.15
2019-06-07T23:28:27.911Z,2.30
2019-06-07T23:30:59.591Z,3.05
2019-06-07T23:33:31.382Z,2.35
2019-06-07T23:36:03.262Z,2.75
2019-06-07T23:38:35.025Z,2.22
2019-06-07T23:41:06.696Z,3.17
2019-06-07T23:43:38.475Z,2.37
2019-06-07T23:46:11.422Z,3.25
2019-06-07T23:48:43.351Z,2.62
2019-06-07T23:51:15.605Z,2.67
2019-06-07T23:53:47.312Z,2.77
2019-06-07T23:56:20.417Z,2.30
2019-06-07T23:58:52.199Z,2.83
